Time;durP1;ratioP1;P1;durP2;ratioP2;P2;SDS_P1;SDS_P2;PMS_P1;PMS_P2;Temp;Humidity;BMP_temperature;BMP_pressure;BME280_temperature;BME280_humidity;BME280_pressure;Samples;Min_cycle;Max_cycle;Signal;HPM_P1;HPM_P2
2022/03/13 00:01:03;;;;;;;4.07;3.37;;;;;;;0.40;35.02;100792.13;4245005;33;33492;-90
2022/03/13 00:03:33;;;;;;;6.20;3.90;;;;;;;0.28;35.41;100788.16;4244138;33;32394;-88
2022/03/13 00:06:02;;;;;;;5.62;3.65;;;;;;;0.49;35.27;100790.81;4242998;33;34440;-89
2022/03/13 00:08:33;;;;;;;6.82;4.18;;;;;;;0.37;35.44;100784.34;4248101;33;31862;-89
2022/03/13 00:11:08;;;;;;;8.65;4.30;;;;;;;0.14;36.01;100777.31;4241796;33;34488;-88
2022/03/13 00:13:39;;;;;;;10.05;4.87;;;;;;;0.05;36.40;100782.87;4244434;33;33244;-89
2022/03/13 00:16:09;;;;;;;10.40;5.65;;;;;;;0.02;36.36;100775.06;4242466;33;33862;-89
2022/03/13 00:18:46;;;;;;;8.20;4.05;;;;;;;0.13;36.39;100779.00;4242425;33;33438;-88
2022/03/13 00:21:16;;;;;;;5.85;4.40;;;;;;;0.19;36.34;100779.28;4249936;33;33698;-89
2022/03/13 00:23:45;;;;;;;10.88;5.70;;;;;;;-0.02;36.66;100765.53;4246093;33;33257;-88
2022/03/13 00:26:16;;;;;;;9.00;4.87;;;;;;;-0.02;37.03;100773.19;4250908;33;33417;-88
2022/03/13 00:28:46;;;;;;;10.55;5.15;;;;;;;-0.02;37.28;100775.75;4254831;33;33301;-88
2022/03/13 00:31:15;;;;;;;7.82;4.70;;;;;;;0.03;37.37;100768.31;4254324;33;33676;-88
2022/03/13 00:33:43;;;;;;;5.82;4.05;;;;;;;0.02;37.57;100764.00;4254740;33;34030;-90
2022/03/13 00:36:13;;;;;;;10.05;6.30;;;;;;;-0.08;37.80;100763.56;4258706;33;34475;-88
2022/03/13 00:38:42;;;;;;;12.95;4.93;;;;;;;-0.08;37.83;100757.59;4254355;33;34002;-88
2022/03/13 00:41:10;;;;;;;7.18;4.75;;;;;;;-0.13;37.64;100759.06;4254431;33;33408;-88
2022/03/13 00:43:40;;;;;;;8.30;4.72;;;;;;;-0.03;37.17;100763.78;4254684;33;33305;-88
2022/03/13 00:46:14;;;;;;;5.30;3.67;;;;;;;-0.27;37.33;100764.34;4253919;33;34272;-88
2022/03/13 00:48:43;;;;;;;4.78;3.75;;;;;;;-0.29;37.30;100757.44;4259188;33;33878;-87
2022/03/13 00:51:12;;;;;;;6.18;4.00;;;;;;;-0.24;37.08;100767.06;4253473;33;34458;-87
2022/03/13 00:53:42;;;;;;;5.72;4.20;;;;;;;-0.27;37.09;100763.50;4252975;33;32345;-89
2022/03/13 00:56:11;;;;;;;5.53;3.83;;;;;;;-0.25;36.93;100772.09;4254440;33;33504;-87
2022/03/13 00:58:42;;;;;;;6.78;4.35;;;;;;;-0.35;37.17;100768.22;4247329;33;34294;-88
2022/03/13 01:01:11;;;;;;;6.87;4.20;;;;;;;-0.39;37.90;100765.47;4256646;33;32144;-90
2022/03/13 01:03:49;;;;;;;13.60;6.22;;;;;;;-0.40;38.05;100763.72;4260876;33;34038;-89
2022/03/13 01:06:18;;;;;;;6.43;4.50;;;;;;;-0.58;38.69;100754.41;4254467;33;34510;-88
2022/03/13 01:08:48;;;;;;;7.80;4.63;;;;;;;-0.57;39.06;100753.56;4255293;33;33907;-87
2022/03/13 01:11:19;;;;;;;7.30;5.78;;;;;;;-0.46;38.90;100749.88;4255018;33;34574;-88
2022/03/13 01:13:50;;;;;;;5.35;4.07;;;;;;;-0.52;39.60;100752.13;4255207;33;33422;-87
2022/03/13 01:16:20;;;;;;;;;;;;;;;-0.45;39.12;100743.97;4260605;33;33855;-89
2022/03/13 01:18:51;;;;;;;6.45;4.07;;;;;;;-0.56;39.04;100754.44;4255150;33;34272;-87
2022/03/13 01:21:20;;;;;;;;;;;;;;;-0.66;38.97;100746.34;4255505;33;34285;-88
2022/03/13 01:24:17;;;;;;;5.78;4.72;;;;;;;-0.70;38.83;100736.81;4256049;33;32930;-89
2022/03/13 01:26:49;;;;;;;6.62;4.82;;;;;;;-0.80;39.20;100743.91;4256571;33;32918;-87
2022/03/13 01:29:20;;;;;;;6.00;3.97;;;;;;;-0.68;39.22;100747.97;4262725;33;33406;-88
2022/03/13 01:31:49;;;;;;;9.82;4.82;;;;;;;-0.50;38.96;100749.66;4274485;33;33498;-89
2022/03/13 01:34:41;;;;;;;6.18;5.35;;;;;;;-0.47;39.16;100753.22;4260557;33;33107;-89
2022/03/13 01:37:14;;;;;;;8.07;5.10;;;;;;;-0.76;39.71;100751.78;4254121;33;33557;-87
2022/03/13 01:39:43;;;;;;;6.85;5.00;;;;;;;-0.79;39.99;100744.00;4255241;33;34063;-88
2022/03/13 01:42:12;;;;;;;7.93;5.68;;;;;;;-0.46;39.52;100748.97;4255111;33;33521;-88
2022/03/13 01:44:42;;;;;;;10.43;5.85;;;;;;;-0.60;39.76;100745.78;4255508;33;32896;-87
2022/03/13 01:47:12;;;;;;;15.20;6.45;;;;;;;-0.65;40.10;100745.56;4258493;33;34568;-89
2022/03/13 01:49:41;;;;;;;10.18;5.22;;;;;;;-0.71;40.18;100741.84;4245801;33;33670;-87
2022/03/13 01:52:14;;;;;;;6.97;4.95;;;;;;;-0.82;40.12;100732.78;4254542;33;33878;-90
2022/03/13 01:54:45;;;;;;;6.57;4.03;;;;;;;-0.95;40.40;100732.19;4254642;33;33553;-88
2022/03/13 01:57:17;;;;;;;5.80;5.12;;;;;;;-0.70;40.03;100738.47;4254802;33;34456;-89
2022/03/13 01:59:59;;;;;;;10.00;4.97;;;;;;;-0.66;39.68;100738.69;4259865;33;33840;-86
2022/03/13 02:02:30;;;;;;;6.95;4.60;;;;;;;-0.56;39.20;100734.91;4254484;33;34917;-89
2022/03/13 02:04:58;;;;;;;6.82;3.95;;;;;;;-0.48;38.85;100732.78;4254723;33;34290;-88
2022/03/13 02:07:28;;;;;;;5.20;4.03;;;;;;;-0.65;38.71;100730.28;4254735;33;34662;-87
2022/03/13 02:09:57;;;;;;;5.62;4.03;;;;;;;-0.81;39.13;100725.22;4254625;33;34576;-87
2022/03/13 02:12:27;;;;;;;6.68;4.22;;;;;;;-0.92;38.95;100717.06;4259655;33;33851;-89
2022/03/13 02:14:57;;;;;;;3.47;3.17;;;;;;;-0.80;38.91;100718.44;4257321;33;33260;-88
2022/03/13 02:17:28;;;;;;;7.00;3.95;;;;;;;-1.08;39.32;100709.47;4254622;33;33677;-88
2022/03/13 02:19:57;;;;;;;8.30;4.32;;;;;;;-1.03;39.39;100704.59;4254548;33;32656;-88
2022/03/13 02:22:26;;;;;;;5.25;4.40;;;;;;;-0.94;39.09;100715.25;4254817;33;33819;-88
2022/03/13 02:24:56;;;;;;;7.25;4.22;;;;;;;-0.79;38.92;100717.66;4255175;33;33418;-88
2022/03/13 02:27:27;;;;;;;4.32;3.85;;;;;;;-0.71;38.54;100714.69;4259951;33;33739;-87
2022/03/13 02:29:57;;;;;;;10.38;4.05;;;;;;;-0.71;38.50;100718.91;4254973;33;34760;-88
2022/03/13 02:32:25;;;;;;;6.65;3.95;;;;;;;-0.81;38.68;100714.16;4254734;33;33782;-89
2022/03/13 02:34:55;;;;;;;7.22;4.32;;;;;;;-1.05;38.92;100714.69;4254718;33;33285;-86
2022/03/13 02:37:36;;;;;;;8.18;4.18;;;;;;;-0.80;38.56;100710.81;4251266;33;33773;-88
2022/03/13 02:40:09;;;;;;;4.10;3.55;;;;;;;-0.90;38.56;100710.34;4259956;33;34065;-88
2022/03/13 02:42:38;;;;;;;5.47;3.85;;;;;;;-0.89;38.85;100711.25;4259763;33;34528;-87
2022/03/13 02:45:07;;;;;;;6.82;5.12;;;;;;;-0.83;38.74;100708.97;4254499;33;33448;-88
2022/03/13 02:47:36;;;;;;;6.05;3.87;;;;;;;-0.91;38.84;100711.16;4254389;33;34396;-86
2022/03/13 02:50:07;;;;;;;4.90;3.83;;;;;;;-0.97;38.83;100703.19;4240358;33;33573;-89
2022/03/13 02:52:36;;;;;;;7.75;3.67;;;;;;;-0.95;38.70;100710.94;4250008;33;33674;-89
2022/03/13 02:55:07;;;;;;;5.05;4.55;;;;;;;-1.07;38.70;100706.97;4260080;33;33344;-86
2022/03/13 02:57:36;;;;;;;5.50;3.67;;;;;;;-1.18;38.93;100700.50;4253756;33;33861;-88
2022/03/13 03:00:08;;;;;;;5.22;4.30;;;;;;;-1.29;39.55;100704.16;4252911;33;32521;-88
2022/03/13 03:02:37;;;;;;;7.10;4.00;;;;;;;-1.15;39.29;100702.31;4253778;33;33602;-89
2022/03/13 03:05:07;;;;;;;6.70;4.32;;;;;;;-1.14;39.39;100704.03;4254108;33;32909;-88
2022/03/13 03:07:37;;;;;;;5.22;4.10;;;;;;;-1.09;39.39;100705.16;4259710;33;34431;-89
2022/03/13 03:10:13;;;;;;;7.43;4.32;;;;;;;-1.11;39.64;100696.59;4254269;33;34444;-87
2022/03/13 03:12:42;;;;;;;5.55;3.95;;;;;;;-1.10;39.78;100696.62;4253361;33;33579;-86
2022/03/13 03:15:11;;;;;;;7.53;4.60;;;;;;;-1.09;39.81;100697.50;4253986;33;34947;-89
2022/03/13 03:17:40;;;;;;;5.25;4.03;;;;;;;-1.26;40.35;100701.75;4253550;33;34523;-86
2022/03/13 03:20:10;;;;;;;4.28;3.87;;;;;;;-1.18;39.85;100708.13;4253742;33;35014;-87
2022/03/13 03:22:40;;;;;;;7.20;4.43;;;;;;;-1.08;39.28;100699.28;4259962;33;34214;-89
2022/03/13 03:25:10;;;;;;;6.47;3.75;;;;;;;-1.23;39.79;100691.75;4255614;33;33327;-88
2022/03/13 03:27:40;;;;;;;4.90;4.15;;;;;;;-1.13;39.42;100691.41;4255879;33;33845;-88
2022/03/13 03:30:11;;;;;;;5.10;4.43;;;;;;;-1.15;39.44;100693.00;4255533;33;33878;-89
2022/03/13 03:32:40;;;;;;;6.10;4.65;;;;;;;-1.05;39.36;100690.91;4255762;33;33802;-88
2022/03/13 03:35:09;;;;;;;6.93;4.28;;;;;;;-1.09;39.44;100689.88;4261053;33;32931;-89
2022/03/13 03:37:38;;;;;;;5.85;4.40;;;;;;;-1.20;40.08;100680.84;4255846;33;33836;-87
2022/03/13 03:40:08;;;;;;;8.25;4.57;;;;;;;-1.11;39.70;100681.31;4255782;33;34739;-87
2022/03/13 03:42:39;;;;;;;7.28;5.28;;;;;;;-1.02;39.67;100678.31;4255156;33;33961;-88
2022/03/13 03:45:11;;;;;;;4.45;3.47;;;;;;;-1.19;39.81;100688.53;4255460;33;33193;-89
2022/03/13 03:47:39;;;;;;;9.18;4.40;;;;;;;-1.19;39.96;100680.03;4255670;33;33530;-89
2022/03/13 03:50:09;;;;;;;6.68;4.22;;;;;;;-1.52;40.34;100675.00;4260588;33;34771;-87
2022/03/13 03:52:38;;;;;;;3.60;3.17;;;;;;;-1.35;39.92;100675.84;4256872;33;33785;-88
2022/03/13 03:55:08;;;;;;;5.43;4.05;;;;;;;-1.36;39.57;100674.97;4255860;33;33442;-88
2022/03/13 03:57:38;;;;;;;5.47;3.97;;;;;;;-1.26;39.23;100672.88;4255446;33;33967;-87
2022/03/13 04:00:09;;;;;;;5.05;4.12;;;;;;;-1.31;39.24;100677.75;4255475;33;33347;-87
2022/03/13 04:02:41;;;;;;;4.87;3.35;;;;;;;-1.16;38.82;100680.16;4260153;33;34248;-88
2022/03/13 04:05:11;;;;;;;3.78;3.22;;;;;;;-1.19;38.92;100680.91;4255703;33;33331;-88
2022/03/13 04:07:40;;;;;;;4.43;3.50;;;;;;;-1.26;38.93;100683.94;4254542;33;32862;-87
2022/03/13 04:10:14;;;;;;;4.07;3.50;;;;;;;-1.25;39.09;100678.06;4252928;33;33623;-87
2022/03/13 04:12:44;;;;;;;6.78;4.70;;;;;;;-1.29;39.25;100671.94;4249665;33;33857;-88
2022/03/13 04:15:12;;;;;;;6.10;4.72;;;;;;;-1.36;39.88;100677.50;4257287;33;34105;-87
2022/03/13 04:17:45;;;;;;;7.78;4.03;;;;;;;-1.39;40.33;100677.34;4261399;33;33292;-88
2022/03/13 04:20:14;;;;;;;4.10;3.60;;;;;;;-1.35;40.25;100673.31;4255305;33;33748;-87
2022/03/13 04:22:43;;;;;;;4.47;3.72;;;;;;;-1.05;39.38;100662.91;4252901;33;34577;-86
2022/03/13 04:25:12;;;;;;;3.85;3.15;;;;;;;-1.04;39.02;100662.94;4255349;33;33126;-90
2022/03/13 04:27:41;;;;;;;5.43;3.95;;;;;;;-1.08;39.00;100668.72;4260479;33;34439;-89
2022/03/13 04:30:14;;;;;;;4.12;3.25;;;;;;;-1.26;39.03;100672.88;4258952;33;33664;-88
2022/03/13 04:32:43;;;;;;;4.05;3.55;;;;;;;-1.59;39.45;100671.25;4254752;33;34045;-86
2022/03/13 04:35:12;;;;;;;4.87;3.50;;;;;;;-1.29;38.71;100668.50;4254936;33;34114;-86
2022/03/13 04:37:41;;;;;;;5.35;3.53;;;;;;;-1.42;38.92;100671.25;4255412;33;34536;-88
2022/03/13 04:40:15;;;;;;;3.58;3.28;;;;;;;-1.24;38.41;100656.88;4260478;33;34466;-88
2022/03/13 04:42:44;;;;;;;5.05;4.05;;;;;;;-1.14;38.29;100663.31;4254771;33;33852;-88
2022/03/13 04:45:14;;;;;;;4.78;3.67;;;;;;;-1.08;37.92;100656.84;4255536;33;33889;-88
2022/03/13 04:47:43;;;;;;;4.07;3.23;;;;;;;-1.07;38.35;100658.59;4255323;33;33668;-88
2022/03/13 04:50:12;;;;;;;3.72;3.37;;;;;;;-1.21;38.81;100658.72;4260429;33;33944;-86
2022/03/13 04:52:41;;;;;;;3.42;3.10;;;;;;;-1.12;38.67;100652.41;4259262;33;33703;-86
2022/03/13 04:55:10;;;;;;;5.57;3.80;;;;;;;-1.24;39.04;100664.53;4255515;33;33687;-86
2022/03/13 04:57:38;;;;;;;9.80;4.25;;;;;;;-1.54;40.05;100654.56;4255022;33;33873;-89
2022/03/13 05:00:08;;;;;;;5.97;4.25;;;;;;;-1.25;39.46;100660.25;4254730;33;33994;-86
2022/03/13 05:02:38;;;;;;;3.87;3.33;;;;;;;-1.41;39.80;100655.16;4259742;33;36096;-88
2022/03/13 05:05:08;;;;;;;6.32;4.05;;;;;;;-1.27;39.54;100649.09;4254647;33;32484;-89
2022/03/13 05:07:37;;;;;;;4.87;4.03;;;;;;;-1.40;39.45;100649.28;4255040;33;33743;-86
2022/03/13 05:10:07;;;;;;;5.32;3.60;;;;;;;-1.29;38.82;100654.09;4254879;33;33565;-87
2022/03/13 05:12:36;;;;;;;4.07;3.33;;;;;;;-1.30;38.79;100648.97;4259700;33;33561;-88
2022/03/13 05:15:05;;;;;;;3.65;3.30;;;;;;;-1.23;38.45;100660.28;4255084;33;33365;-87
2022/03/13 05:17:37;;;;;;;3.33;3.03;;;;;;;-1.12;38.12;100666.81;4254570;33;33780;-86
2022/03/13 05:20:08;;;;;;;;;;;;;;;-1.26;38.57;100668.66;4254362;33;34037;-88
2022/03/13 05:22:36;;;;;;;3.40;3.10;;;;;;;-1.14;38.88;100673.50;4254927;33;34452;-88
2022/03/13 05:25:10;;;;;;;3.53;3.22;;;;;;;-0.90;37.75;100664.50;4259992;33;33241;-88
2022/03/13 05:27:39;;;;;;;2.92;2.67;;;;;;;-0.88;37.92;100668.00;4254466;33;33593;-89
2022/03/13 05:30:09;;;;;;;6.97;4.55;;;;;;;-1.04;38.05;100667.19;4254640;33;33551;-88
2022/03/13 05:32:38;;;;;;;3.95;3.35;;;;;;;-1.04;38.50;100659.53;4255844;33;33872;-88
2022/03/13 05:35:10;;;;;;;6.70;4.03;;;;;;;-0.93;38.60;100669.44;4260536;33;33344;-88
2022/03/13 05:37:39;;;;;;;4.55;3.90;;;;;;;-1.07;39.06;100668.78;4257423;33;33344;-88
2022/03/13 05:40:13;;;;;;;5.37;4.05;;;;;;;-0.96;38.71;100669.31;4255045;33;34060;-88
2022/03/13 05:42:44;;;;;;;5.12;3.67;;;;;;;-0.74;37.51;100670.34;4254887;33;33139;-87
2022/03/13 05:45:15;;;;;;;3.58;3.25;;;;;;;-1.03;37.79;100674.03;4254713;33;34049;-88
2022/03/13 05:47:45;;;;;;;6.95;4.10;;;;;;;-0.83;37.23;100670.78;4254801;33;33112;-88
2022/03/13 05:50:16;;;;;;;3.90;3.30;;;;;;;-0.69;36.87;100661.25;4259873;33;33832;-88
2022/03/13 05:52:46;;;;;;;5.57;3.65;;;;;;;-0.77;37.45;100670.22;4254358;33;35820;-87
2022/03/13 05:55:16;;;;;;;5.13;3.63;;;;;;;-0.94;37.79;100671.94;4247351;33;32437;-88
2022/03/13 05:57:45;;;;;;;4.00;3.25;;;;;;;-0.74;37.19;100662.72;4253515;33;33589;-89
2022/03/13 06:00:16;;;;;;;8.40;3.93;;;;;;;-0.80;37.42;100668.34;4251645;33;33618;-88
2022/03/13 06:02:47;;;;;;;5.45;3.72;;;;;;;-0.81;37.36;100669.19;4260206;33;35265;-87
2022/03/13 06:05:18;;;;;;;3.95;3.55;;;;;;;-0.95;37.53;100676.12;4254831;33;33391;-89
2022/03/13 06:07:47;;;;;;;;;;;;;;;-0.74;37.06;100670.34;4254845;33;33236;-88
2022/03/13 06:10:23;;;;;;;6.40;4.35;;;;;;;-0.52;36.00;100672.25;4254978;33;33921;-88
2022/03/13 06:12:53;;;;;;;5.57;2.95;;;;;;;-0.51;36.28;100677.41;4253615;33;33363;-89
2022/03/13 06:15:22;;;;;;;5.78;3.72;;;;;;;-0.48;37.16;100677.56;4241547;33;33290;-87
2022/03/13 06:17:51;;;;;;;4.12;3.72;;;;;;;-0.28;35.89;100690.34;4260152;33;34559;-87
2022/03/13 06:20:22;;;;;;;12.23;3.95;;;;;;;-0.22;35.69;100685.53;4257181;33;34321;-87
2022/03/13 06:22:51;;;;;;;5.70;3.50;;;;;;;0.06;35.42;100686.81;4254575;33;34570;-90
2022/03/13 06:25:20;;;;;;;4.47;3.17;;;;;;;0.17;35.52;100683.03;4254685;33;33480;-89
2022/03/13 06:27:49;;;;;;;5.35;4.00;;;;;;;0.34;34.66;100689.78;4254843;33;33777;-88
2022/03/13 06:30:19;;;;;;;5.90;4.18;;;;;;;0.33;34.80;100690.56;4259964;33;34647;-87
2022/03/13 06:32:49;;;;;;;6.55;4.25;;;;;;;0.55;34.79;100692.38;4254481;33;33483;-88
2022/03/13 06:35:20;;;;;;;7.70;4.43;;;;;;;0.54;35.38;100700.00;4253830;33;33328;-89
2022/03/13 06:37:51;;;;;;;8.98;4.80;;;;;;;0.59;35.55;100690.84;4256290;33;34218;-88
2022/03/13 06:40:21;;;;;;;7.32;4.55;;;;;;;0.43;36.02;100699.50;4253922;33;33813;-88
2022/03/13 06:42:51;;;;;;;8.30;5.03;;;;;;;0.30;36.86;100703.19;4253627;33;33910;-89
2022/03/13 06:45:22;;;;;;;8.63;4.90;;;;;;;0.57;36.71;100702.66;4245968;33;33102;-89
2022/03/13 06:47:52;;;;;;;10.90;4.93;;;;;;;0.89;35.25;100698.91;4241104;33;33845;-87
2022/03/13 06:50:23;;;;;;;7.93;3.37;;;;;;;0.84;35.65;100705.50;4253731;33;33480;-89
2022/03/13 06:52:55;;;;;;;;;;;;;;;0.64;36.16;100710.66;4254986;33;33897;-89
2022/03/13 06:55:25;;;;;;;8.27;4.53;;;;;;;0.92;36.06;100708.37;4254533;33;33024;-90
2022/03/13 06:57:53;;;;;;;4.03;3.33;;;;;;;1.25;34.57;100714.91;4260841;33;33729;-90
2022/03/13 07:00:25;;;;;;;6.53;3.72;;;;;;;1.26;34.74;100705.56;4255742;33;34331;-89
2022/03/13 07:02:54;;;;;;;5.80;3.55;;;;;;;1.13;35.48;100709.28;4255763;33;33895;-90
2022/03/13 07:05:24;;;;;;;4.47;3.17;;;;;;;1.37;34.84;100699.19;4255559;33;33543;-90
2022/03/13 07:07:55;;;;;;;5.25;3.67;;;;;;;1.56;34.02;100697.38;4255989;33;33664;-88
2022/03/13 07:10:24;;;;;;;5.87;3.58;;;;;;;1.62;34.01;100708.72;4256624;33;35181;-89
2022/03/13 07:12:53;;;;;;;4.72;3.62;;;;;;;1.78;33.95;100715.28;4261159;33;33999;-90
2022/03/13 07:15:22;;;;;;;6.30;3.90;;;;;;;1.09;34.67;100711.66;4259780;33;32785;-91
2022/03/13 07:17:51;;;;;;;7.93;4.28;;;;;;;1.08;35.42;100712.47;4244730;33;33732;-89
2022/03/13 07:24:03;;;;;;;6.07;3.20;;;;;;;1.86;35.35;100705.34;4251866;33;34280;-88
2022/03/13 07:26:50;;;;;;;5.85;4.35;;;;;;;1.89;35.42;100706.34;4238421;33;33614;-88
2022/03/13 07:29:24;;;;;;;7.00;4.00;;;;;;;1.76;35.40;100708.37;4253250;33;33795;-89
2022/03/13 07:31:56;;;;;;;7.87;4.28;;;;;;;1.49;36.14;100709.91;4252974;33;33581;-90
2022/03/13 07:34:29;;;;;;;7.18;4.18;;;;;;;1.80;35.56;100710.25;4259244;33;33862;-90
2022/03/13 07:36:58;;;;;;;5.50;4.12;;;;;;;1.70;35.58;100709.88;4250296;33;33534;-90
2022/03/13 07:39:28;;;;;;;8.98;5.12;;;;;;;2.36;34.32;100711.47;4253152;33;33649;-90
2022/03/13 07:41:57;;;;;;;7.05;4.28;;;;;;;1.74;34.38;100720.22;4252048;33;34527;-90
2022/03/13 07:44:26;;;;;;;5.22;3.65;;;;;;;1.81;34.48;100722.19;4252104;33;33650;-90
2022/03/13 07:46:55;;;;;;;6.10;3.70;;;;;;;2.05;34.79;100719.72;4259348;33;33633;-90
2022/03/13 07:49:24;;;;;;;5.57;3.37;;;;;;;2.09;34.93;100717.31;4253948;33;34195;-88
2022/03/13 07:51:53;;;;;;;5.78;4.45;;;;;;;2.18;34.27;100721.94;4253860;33;33831;-91
2022/03/13 07:54:22;;;;;;;4.72;3.55;;;;;;;2.78;32.63;100722.38;4252846;33;33835;-91
2022/03/13 07:56:52;;;;;;;3.78;3.12;;;;;;;2.45;31.90;100721.19;4254721;33;34166;-91
2022/03/13 07:59:21;;;;;;;6.32;3.55;;;;;;;2.93;31.62;100722.03;4254905;33;33170;-89
2022/03/13 08:01:50;;;;;;;6.00;3.72;;;;;;;2.96;31.60;100721.28;4256102;33;33812;-91
2022/03/13 08:04:19;;;;;;;4.15;3.00;;;;;;;2.77;31.51;100728.31;4252440;33;33669;-91
2022/03/13 08:06:48;;;;;;;6.53;4.22;;;;;;;3.56;30.48;100718.97;4254116;33;33538;-91
2022/03/13 08:09:16;;;;;;;5.43;3.30;;;;;;;3.82;30.31;100724.94;4253156;33;34971;-92
2022/03/13 08:11:45;;;;;;;5.03;3.78;;;;;;;4.09;29.32;100721.44;4251951;33;33166;-90
2022/03/13 08:14:15;;;;;;;6.70;4.40;;;;;;;4.26;28.89;100720.25;4259878;33;33962;-90
2022/03/13 08:16:44;;;;;;;4.15;3.10;;;;;;;4.16;28.46;100717.38;4254169;33;35305;-93
2022/03/13 08:19:15;;;;;;;4.47;3.65;;;;;;;4.14;29.04;100709.62;4254719;33;34738;-90
2022/03/13 08:21:43;;;;;;;6.05;3.20;;;;;;;4.54;28.38;100727.84;4254037;33;32877;-90
2022/03/13 08:24:14;;;;;;;6.57;4.07;;;;;;;4.46;28.65;100717.38;4254783;33;33463;-90
2022/03/13 08:26:43;;;;;;;7.97;3.10;;;;;;;4.22;28.75;100720.97;4260413;33;33208;-91
2022/03/13 08:29:14;;;;;;;5.85;3.78;;;;;;;4.40;28.49;100720.62;4254639;33;34233;-89
2022/03/13 08:31:45;;;;;;;7.30;3.83;;;;;;;4.75;28.29;100720.72;4254248;33;34656;-90
2022/03/13 08:34:13;;;;;;;5.60;3.35;;;;;;;4.70;28.15;100718.03;4255023;33;36234;-91
2022/03/13 08:36:46;;;;;;;5.45;3.45;;;;;;;5.22;25.88;100708.25;4252247;33;32945;-90
2022/03/13 08:39:15;;;;;;;6.37;3.33;;;;;;;4.82;27.38;100712.34;4258950;33;34493;-90
2022/03/13 08:41:44;;;;;;;6.05;3.70;;;;;;;5.06;25.54;100712.13;4256415;33;34046;-90
2022/03/13 08:44:13;;;;;;;4.97;3.30;;;;;;;5.46;25.54;100705.41;4250626;33;35302;-93
2022/03/13 08:46:42;;;;;;;4.22;3.25;;;;;;;5.70;25.85;100707.69;4254233;33;33193;-91
2022/03/13 08:49:13;;;;;;;2.80;2.35;;;;;;;5.54;26.20;100701.28;4252810;33;33718;-93
2022/03/13 08:51:42;;;;;;;5.12;2.72;;;;;;;5.98;23.64;100701.44;4253855;33;33976;-93
2022/03/13 08:54:11;;;;;;;3.35;2.50;;;;;;;6.09;23.03;100706.84;4259331;33;33066;-91
2022/03/13 08:56:41;;;;;;;3.28;2.28;;;;;;;6.16;23.26;100702.66;4253664;33;33417;-90
2022/03/13 08:59:10;;;;;;;3.40;2.47;;;;;;;6.24;23.37;100702.84;4250672;33;34997;-93
2022/03/13 09:01:39;;;;;;;3.83;2.65;;;;;;;6.33;22.50;100697.87;4252550;33;33850;-93
2022/03/13 09:04:07;;;;;;;4.05;2.45;;;;;;;6.39;23.60;100703.16;4252326;33;33782;-93
2022/03/13 09:06:39;;;;;;;4.20;2.92;;;;;;;6.56;23.12;100703.50;4258934;33;33375;-91
2022/03/13 09:09:09;;;;;;;3.78;2.53;;;;;;;6.35;22.38;100696.19;4240320;33;32388;-91
2022/03/13 09:11:38;;;;;;;3.25;2.47;;;;;;;6.72;21.47;100700.38;4253158;33;34941;-93
2022/03/13 09:14:08;;;;;;;3.78;2.55;;;;;;;6.93;21.04;100701.59;4250572;33;33081;-91
2022/03/13 09:16:38;;;;;;;6.62;3.65;;;;;;;6.94;21.64;100691.31;4251409;33;32447;-93
2022/03/13 09:19:07;;;;;;;3.80;2.97;;;;;;;6.90;21.78;100688.66;4258331;33;32544;-93
2022/03/13 09:21:39;;;;;;;2.95;2.50;;;;;;;7.09;22.56;100695.84;4258095;33;35085;-94
2022/03/13 09:24:09;;;;;;;3.72;2.50;;;;;;;6.94;21.84;100675.84;4253456;33;33554;-93
2022/03/13 09:26:44;;;;;;;5.82;3.15;;;;;;;7.31;20.89;100688.47;4254045;33;33298;-92
2022/03/13 09:29:14;;;;;;;4.85;2.90;;;;;;;7.30;20.20;100684.13;4254262;33;32626;-92
2022/03/13 09:31:43;;;;;;;4.20;2.78;;;;;;;7.53;21.19;100684.50;4251560;33;33090;-93
2022/03/13 09:34:12;;;;;;;4.37;2.87;;;;;;;7.79;21.36;100684.91;4258067;33;34709;-92
2022/03/13 09:36:43;;;;;;;6.10;3.42;;;;;;;7.59;20.72;100682.91;4250442;33;35502;-93
2022/03/13 09:39:11;;;;;;;4.45;3.03;;;;;;;7.48;20.89;100689.59;4252489;33;32917;-94
2022/03/13 09:41:41;;;;;;;8.88;3.35;;;;;;;7.53;21.08;100687.09;4250052;33;33869;-93
2022/03/13 09:44:10;;;;;;;5.90;3.35;;;;;;;7.26;21.80;100685.81;4250522;33;34229;-91
2022/03/13 09:46:39;;;;;;;6.93;2.90;;;;;;;7.37;21.25;100673.97;4245387;33;32031;-92
2022/03/13 09:49:08;;;;;;;5.43;3.30;;;;;;;7.69;21.41;100678.75;4253499;33;33379;-94
2022/03/13 09:51:37;;;;;;;8.10;4.50;;;;;;;7.69;21.62;100677.00;4254022;33;33617;-94
2022/03/13 09:54:09;;;;;;;5.40;3.53;;;;;;;7.70;21.30;100670.13;4254700;33;34661;-92
2022/03/13 09:56:38;;;;;;;4.82;2.92;;;;;;;7.99;19.94;100657.59;4253630;33;34004;-92
2022/03/13 09:59:08;;;;;;;5.78;3.12;;;;;;;8.00;19.59;100658.50;4252220;33;32039;-95
2022/03/13 10:01:37;;;;;;;4.85;2.87;;;;;;;7.92;20.55;100645.44;4251452;33;34066;-92
2022/03/13 10:04:06;;;;;;;7.40;3.50;;;;;;;8.22;20.58;100657.03;4253195;33;33451;-92
2022/03/13 10:07:03;;;;;;;4.75;2.78;;;;;;;8.19;20.14;100656.97;4249585;33;33493;-92
2022/03/13 10:09:37;;;;;;;6.80;3.70;;;;;;;8.32;19.93;100659.75;4245496;33;32225;-93
2022/03/13 10:12:10;;;;;;;7.60;3.55;;;;;;;8.49;20.05;100649.63;4249101;33;85511;-92
2022/03/13 10:14:59;;;;;;;6.25;3.95;;;;;;;8.50;20.49;100645.31;4242672;33;34206;-93
2022/03/13 10:17:28;;;;;;;4.75;3.47;;;;;;;8.51;20.90;100647.06;4254578;33;34155;-92
2022/03/13 10:20:14;;;;;;;3.80;2.85;;;;;;;8.55;20.82;100648.81;4257359;33;33501;-93
2022/03/13 10:22:43;;;;;;;4.25;3.28;;;;;;;8.63;19.36;100643.72;4250142;33;34644;-94
2022/03/13 10:25:15;;;;;;;3.83;2.95;;;;;;;8.68;19.38;100639.47;4253535;33;34219;-93
2022/03/13 10:27:44;;;;;;;4.25;2.80;;;;;;;8.58;19.46;100642.78;4251103;33;33825;-92
2022/03/13 10:30:13;;;;;;;4.72;3.03;;;;;;;9.00;18.60;100638.88;4251765;33;34724;-92
2022/03/13 10:32:42;;;;;;;3.15;2.40;;;;;;;9.07;17.66;100640.69;4257519;33;33300;-95
2022/03/13 10:35:12;;;;;;;4.30;2.90;;;;;;;9.19;18.12;100643.34;4255577;33;34356;-95
2022/03/13 10:37:43;;;;;;;6.05;3.72;;;;;;;9.14;18.06;100639.88;4255138;33;33205;-94
2022/03/13 10:40:16;;;;;;;6.68;4.18;;;;;;;8.90;18.32;100635.34;4254069;33;33459;-93
2022/03/13 10:42:50;;;;;;;7.30;4.35;;;;;;;8.98;18.52;100639.72;4253558;33;34409;-92
2022/03/13 10:45:37;;;;;;;4.85;3.47;;;;;;;8.97;18.44;100639.72;4251423;33;33723;-93
2022/03/13 10:48:21;;;;;;;5.50;3.30;;;;;;;8.78;18.64;100632.66;4254303;33;33788;-92
2022/03/13 10:50:52;;;;;;;6.37;3.42;;;;;;;9.03;19.25;100633.72;4257527;33;34218;-92
2022/03/13 10:53:22;;;;;;;6.12;3.08;;;;;;;9.17;19.84;100630.37;4245896;33;32358;-93
2022/03/13 10:56:03;;;;;;;5.43;3.90;;;;;;;9.39;19.78;100628.81;4259752;33;33562;-94
2022/03/13 10:58:32;;;;;;;5.85;3.45;;;;;;;9.47;19.79;100635.78;4245050;33;33146;-93
2022/03/13 11:01:07;;;;;;;9.07;4.25;;;;;;;9.55;18.89;100622.03;4252644;33;33943;-93
2022/03/13 11:03:38;;;;;;;5.50;3.42;;;;;;;9.32;19.25;100626.19;4251708;33;33807;-95
2022/03/13 11:06:09;;;;;;;5.70;3.47;;;;;;;9.37;19.72;100625.38;4256021;33;35286;-95
2022/03/13 11:08:37;;;;;;;5.15;2.67;;;;;;;9.52;19.31;100608.16;4253429;33;33183;-92
2022/03/13 11:11:08;;;;;;;5.35;2.95;;;;;;;9.73;18.53;100620.37;4251413;33;34025;-95
2022/03/13 11:13:39;;;;;;;5.00;3.10;;;;;;;9.43;18.96;100618.50;4251582;33;32128;-93
2022/03/13 11:16:09;;;;;;;5.28;2.87;;;;;;;9.66;19.38;100618.62;4237667;33;31228;-93
2022/03/13 11:18:39;;;;;;;6.45;3.80;;;;;;;9.52;19.08;100616.84;4257124;33;33787;-93
2022/03/13 11:21:09;;;;;;;7.65;3.47;;;;;;;9.46;18.88;100610.75;4249889;33;33624;-93
2022/03/13 11:23:38;;;;;;;9.07;4.68;;;;;;;8.62;19.51;100606.63;4238927;33;33067;-93
2022/03/13 11:26:08;;;;;;;5.57;3.50;;;;;;;9.57;19.32;100607.38;4249542;33;34536;-93
2022/03/13 11:28:38;;;;;;;6.10;3.03;;;;;;;9.37;19.16;100607.25;4251510;33;32047;-93
2022/03/13 11:31:28;;;;;;;7.28;3.03;;;;;;;8.90;19.19;100607.75;4248990;33;32398;-93
2022/03/13 11:34:14;;;;;;;5.70;3.37;;;;;;;9.24;19.09;100605.41;4249836;33;35437;-94
2022/03/13 11:36:44;;;;;;;7.72;3.55;;;;;;;9.50;19.13;100597.81;4257141;33;34812;-93
2022/03/13 11:39:24;;;;;;;5.93;3.53;;;;;;;9.17;18.65;100591.56;4249943;33;33117;-94
2022/03/13 11:41:54;;;;;;;5.97;3.35;;;;;;;9.69;18.50;100595.31;4239379;33;33661;-94
2022/03/13 11:44:40;;;;;;;10.20;3.55;;;;;;;9.73;18.45;100586.69;4245036;33;31905;-94
2022/03/13 11:47:23;;;;;;;3.87;2.70;;;;;;;9.27;18.94;100576.94;4242611;33;33430;-93
2022/03/13 11:49:52;;;;;;;4.32;2.65;;;;;;;9.86;19.23;100587.62;4253112;33;32742;-94